createdAt,value
2023-04-05T00:01:13.702Z,94.50
2023-04-05T00:02:46.913Z,94.40
2023-04-05T00:04:21.119Z,94.30
2023-04-05T00:05:54.766Z,94.20
2023-04-05T00:07:28.248Z,94.30
2023-04-05T00:09:03.911Z,94.40
2023-04-05T00:10:37.547Z,94.50
2023-04-05T00:12:10.484Z,94.60
2023-04-05T00:13:42.544Z,94.50
2023-04-05T00:15:17.106Z,94.60
2023-04-05T00:16:50.318Z,95.10
2023-04-05T00:18:22.337Z,94.80
2023-04-05T00:19:57.329Z,94.90
2023-04-05T00:21:30.453Z,94.70
2023-04-05T00:23:03.410Z,94.70
2023-04-05T00:24:38.819Z,94.90
2023-04-05T00:26:12.311Z,95.00
2023-04-05T00:27:45.397Z,95.10
2023-04-05T00:29:18.409Z,95.10
2023-04-05T00:30:54.844Z,95.10
2023-04-05T00:32:27.907Z,95.10
2023-04-05T00:34:00.913Z,95.10
2023-04-05T00:35:33.992Z,95.20
2023-04-05T00:37:06.957Z,95.20
2023-04-05T00:38:40.557Z,95.30
2023-04-05T00:40:12.890Z,95.50
2023-04-05T00:41:48.214Z,95.60
2023-04-05T00:43:20.815Z,95.80
2023-04-05T00:44:53.693Z,95.80
2023-04-05T00:46:28.351Z,95.90
2023-04-05T00:48:01.984Z,96.00
2023-04-05T00:49:36.434Z,96.30
2023-04-05T00:51:11.499Z,96.40
2023-04-05T00:52:45.062Z,96.30
2023-04-05T00:54:19.581Z,96.20
2023-04-05T00:55:51.820Z,96.30
2023-04-05T00:57:26.334Z,96.20
2023-04-05T00:58:59.421Z,96.10
2023-04-05T01:00:31.876Z,96.00
2023-04-05T01:02:16.916Z,96.10
2023-04-05T01:03:54.799Z,96.20
2023-04-05T01:05:35.993Z,96.40
2023-04-05T01:07:15.059Z,96.60
2023-04-05T01:08:56.394Z,96.60
2023-04-05T01:10:36.463Z,96.80
2023-04-05T01:12:12.699Z,96.80
2023-04-05T01:13:46.318Z,96.60
2023-04-05T01:15:19.292Z,96.60
2023-04-05T01:16:51.385Z,96.50
2023-04-05T01:18:26.454Z,96.40
2023-04-05T01:20:02.342Z,96.50
2023-04-05T01:22:13.648Z,96.60
2023-04-05T01:23:58.510Z,96.60
2023-04-05T01:26:08.832Z,96.70
2023-04-05T01:28:03.614Z,96.70
2023-04-05T01:29:48.726Z,97.00
2023-04-05T01:31:29.139Z,97.10
2023-04-05T01:33:11.077Z,97.10
2023-04-05T01:34:52.161Z,97.30
2023-04-05T01:36:31.313Z,97.60
2023-04-05T01:38:06.765Z,97.60
2023-04-05T01:39:40.951Z,97.90
2023-04-05T01:41:13.997Z,98.00
2023-04-05T01:42:47.228Z,98.00
2023-04-05T01:44:20.263Z,98.20
2023-04-05T01:45:54.574Z,98.20
2023-04-05T01:47:26.707Z,98.30
2023-04-05T01:48:59.612Z,98.50
2023-04-05T01:50:32.546Z,98.50
2023-04-05T01:52:05.558Z,98.70
2023-04-05T01:53:37.530Z,98.90
2023-04-05T01:55:10.725Z,98.90
2023-04-05T01:56:43.733Z,98.90
2023-04-05T01:58:16.783Z,99.00
2023-04-05T01:59:48.837Z,99.10
2023-04-05T02:01:23.234Z,99.10
2023-04-05T02:02:56.301Z,99.00
2023-04-05T02:04:29.298Z,99.10
2023-04-05T02:06:01.547Z,99.20
2023-04-05T02:07:34.717Z,99.50
2023-04-05T02:09:07.934Z,99.30
2023-04-05T02:10:41.423Z,99.40
2023-04-05T02:12:14.738Z,99.40
2023-04-05T02:13:47.003Z,99.60
2023-04-05T02:15:20.210Z,99.60
2023-04-05T02:16:55.832Z,99.60
2023-04-05T02:18:31.685Z,99.60
2023-04-05T02:20:06.980Z,99.70
2023-04-05T02:21:41.023Z,99.70
2023-04-05T02:23:14.256Z,99.60
2023-04-05T02:24:47.449Z,99.50
2023-04-05T02:26:19.680Z,99.60
2023-04-05T02:27:52.907Z,99.70
2023-04-05T02:29:24.937Z,99.80
2023-04-05T02:30:58.089Z,99.90
2023-04-05T02:32:33.012Z,99.90
2023-04-05T02:34:09.191Z,99.90
2023-04-05T02:35:42.428Z,99.90
2023-04-05T02:37:15.431Z,99.90
2023-04-05T02:38:48.694Z,99.90
2023-04-05T02:40:22.996Z,99.90
2023-04-05T02:41:56.730Z,99.90
2023-04-05T02:43:30.057Z,99.90
2023-04-05T02:45:02.940Z,99.90
2023-04-05T02:46:36.186Z,99.90
2023-04-05T02:48:10.719Z,99.90
2023-04-05T02:49:42.954Z,99.90
2023-04-05T02:51:16.196Z,99.90
2023-04-05T02:52:49.376Z,99.90
2023-04-05T02:54:22.631Z,99.90
2023-04-05T02:55:55.822Z,99.90
2023-04-05T02:57:28.927Z,99.90
2023-04-05T02:59:02.636Z,99.90
2023-04-05T03:00:34.942Z,99.90
2023-04-05T03:02:08.339Z,99.90
2023-04-05T03:03:43.065Z,99.90
2023-04-05T03:05:18.764Z,99.90
2023-04-05T03:06:52.314Z,99.90
2023-04-05T03:08:24.591Z,99.90
2023-04-05T03:09:58.201Z,99.90
2023-04-05T03:11:32.919Z,99.90
2023-04-05T03:13:06.058Z,99.90
2023-04-05T03:14:40.119Z,99.90
2023-04-05T03:16:13.192Z,99.90
2023-04-05T03:17:46.379Z,99.90
2023-04-05T03:19:22.452Z,99.90
2023-04-05T03:20:56.849Z,99.90
2023-04-05T03:22:29.062Z,99.90
2023-04-05T03:24:02.212Z,99.90
2023-04-05T03:25:36.367Z,99.90
2023-04-05T03:27:10.050Z,99.90
2023-04-05T03:28:45.346Z,99.90
2023-04-05T03:30:18.509Z,99.90
2023-04-05T03:31:53.055Z,99.90
2023-04-05T03:33:26.372Z,99.90
2023-04-05T03:34:59.848Z,99.90
2023-04-05T03:36:41.758Z,99.90
2023-04-05T03:38:15.156Z,99.90
2023-04-05T03:39:47.174Z,99.90
2023-04-05T03:41:20.900Z,99.90
2023-04-05T03:42:53.077Z,99.90
2023-04-05T03:44:26.210Z,99.90
2023-04-05T03:45:59.827Z,99.90
2023-04-05T03:47:32.088Z,99.90
2023-04-05T03:49:06.173Z,99.90
2023-04-05T03:50:40.669Z,99.90
2023-04-05T03:52:12.728Z,99.90
2023-04-05T03:53:46.141Z,99.90
2023-04-05T03:55:18.852Z,99.90
2023-04-05T03:56:52.102Z,99.90
2023-04-05T03:58:26.407Z,99.90
2023-04-05T03:59:59.352Z,99.90
2023-04-05T04:01:32.303Z,99.90
2023-04-05T04:03:05.469Z,99.90
2023-04-05T04:04:37.441Z,99.90
2023-04-05T04:06:11.934Z,99.90
2023-04-05T04:07:44.482Z,99.90
2023-04-05T04:09:17.407Z,99.90
2023-04-05T04:10:50.782Z,99.90
2023-04-05T04:12:23.783Z,99.90
2023-04-05T04:13:56.762Z,99.90
2023-04-05T04:15:28.885Z,99.90
2023-04-05T04:17:01.944Z,99.90
2023-04-05T04:18:34.073Z,99.90
2023-04-05T04:20:10.928Z,99.90
2023-04-05T04:21:52.105Z,99.90
2023-04-05T04:23:25.030Z,99.90
2023-04-05T04:24:57.020Z,99.90
2023-04-05T04:26:30.010Z,99.90
2023-04-05T04:28:02.966Z,99.90
2023-04-05T04:29:39.099Z,99.90
2023-04-05T04:31:14.363Z,99.90
2023-04-05T04:32:52.745Z,99.90
2023-04-05T04:34:26.195Z,99.90
2023-04-05T04:36:02.704Z,99.90
2023-04-05T04:37:37.632Z,99.90
2023-04-05T04:39:13.816Z,99.90
2023-04-05T04:40:50.912Z,99.90
2023-04-05T04:42:24.001Z,99.90
2023-04-05T04:43:58.544Z,99.90
2023-04-05T04:45:34.799Z,99.90
2023-04-05T04:47:13.775Z,99.90
2023-04-05T04:48:48.177Z,99.90
2023-04-05T04:50:22.136Z,99.90
2023-04-05T04:51:55.184Z,99.90
2023-04-05T04:53:29.459Z,99.90
2023-04-05T04:55:02.723Z,99.90
2023-04-05T04:56:35.740Z,99.90
2023-04-05T04:58:11.534Z,99.90
2023-04-05T04:59:44.485Z,99.90
2023-04-05T05:01:17.465Z,99.90
2023-04-05T05:02:51.892Z,99.90
2023-04-05T05:04:24.962Z,99.90
2023-04-05T05:05:57.922Z,99.90
2023-04-05T05:07:29.866Z,99.90
2023-04-05T05:09:04.203Z,99.90
2023-04-05T05:10:37.205Z,99.90
2023-04-05T05:12:10.221Z,99.90
2023-04-05T05:13:43.119Z,99.90
2023-04-05T05:15:15.352Z,99.90
2023-04-05T05:16:48.348Z,99.90
2023-04-05T05:18:21.316Z,99.90
2023-04-05T05:19:56.285Z,99.90
2023-04-05T05:21:29.377Z,99.90
2023-04-05T05:23:03.929Z,99.90
2023-04-05T05:24:38.197Z,99.90
2023-04-05T05:26:12.897Z,99.90
2023-04-05T05:27:45.794Z,99.90
2023-04-05T05:29:20.346Z,99.90
2023-04-05T05:30:53.410Z,99.90
2023-04-05T05:32:26.392Z,99.90
2023-04-05T05:33:59.334Z,99.90
2023-04-05T05:35:32.328Z,99.90
2023-04-05T05:37:05.915Z,99.90
2023-04-05T05:38:38.892Z,99.90
2023-04-05T05:40:13.589Z,99.90
2023-04-05T05:41:46.608Z,99.90
2023-04-05T05:43:20.771Z,99.90
2023-04-05T05:44:53.795Z,99.90
2023-04-05T05:46:27.468Z,99.90
2023-04-05T05:48:00.496Z,99.90
2023-04-05T05:49:33.386Z,99.90
2023-04-05T05:51:09.833Z,99.90
2023-04-05T05:52:42.793Z,99.90
2023-04-05T05:54:15.682Z,99.90
2023-04-05T05:55:50.105Z,99.90
2023-04-05T05:57:23.232Z,99.90
2023-04-05T05:58:56.214Z,99.90
2023-04-05T06:00:30.455Z,99.90
2023-04-05T06:02:03.442Z,99.60
2023-04-05T06:03:36.695Z,99.40
2023-04-05T06:05:09.937Z,99.10
2023-04-05T06:06:43.730Z,98.70
2023-04-05T06:08:16.675Z,98.40
2023-04-05T06:09:49.594Z,98.10
2023-04-05T06:11:25.246Z,98.00
2023-04-05T06:12:58.141Z,97.70
2023-04-05T06:14:31.208Z,97.50
2023-04-05T06:16:04.230Z,97.20
2023-04-05T06:17:41.993Z,97.00
2023-04-05T06:19:15.658Z,96.90
2023-04-05T06:20:48.606Z,96.50
2023-04-05T06:22:23.023Z,96.30
2023-04-05T06:23:56.706Z,96.20
2023-04-05T06:25:29.670Z,96.10
2023-04-05T06:27:03.980Z,96.30
2023-04-05T06:28:36.901Z,96.30
2023-04-05T06:30:11.007Z,96.20
2023-04-05T06:31:46.471Z,96.10
2023-04-05T06:33:19.535Z,96.10
2023-04-05T06:34:53.554Z,95.90
2023-04-05T06:36:27.725Z,95.70
2023-04-05T06:38:05.938Z,95.60
2023-04-05T06:39:38.917Z,95.70
2023-04-05T06:41:11.977Z,95.70
2023-04-05T06:42:46.685Z,95.70
2023-04-05T06:44:19.650Z,95.40
2023-04-05T06:45:52.564Z,95.40
2023-04-05T06:47:26.072Z,95.10
2023-04-05T06:49:02.399Z,94.50
2023-04-05T06:50:36.748Z,94.20
2023-04-05T06:52:09.793Z,93.60
2023-04-05T06:53:42.709Z,93.30
2023-04-05T06:55:15.648Z,92.90
2023-04-05T06:56:48.770Z,92.70
2023-04-05T06:58:23.452Z,92.70
2023-04-05T06:59:56.482Z,92.60
2023-04-05T07:01:30.130Z,92.40
2023-04-05T07:03:03.037Z,92.00
2023-04-05T07:04:36.956Z,91.60
2023-04-05T07:06:11.801Z,91.50
2023-04-05T07:07:45.554Z,91.50
2023-04-05T07:09:18.816Z,91.60
2023-04-05T07:10:52.529Z,91.40
2023-04-05T07:12:25.540Z,91.10
2023-04-05T07:13:59.835Z,91.10
2023-04-05T07:15:32.755Z,90.90
2023-04-05T07:17:07.067Z,90.70
2023-04-05T07:18:39.952Z,90.70
2023-04-05T07:20:14.200Z,90.60
2023-04-05T07:21:47.112Z,90.70
2023-04-05T07:23:20.754Z,90.70
2023-04-05T07:24:55.598Z,90.80
2023-04-05T07:26:28.978Z,90.50
2023-04-05T07:28:01.904Z,90.50
2023-04-05T07:29:40.517Z,90.30
2023-04-05T07:31:16.496Z,90.30
2023-04-05T07:32:49.417Z,90.20
2023-04-05T07:34:22.320Z,90.00
2023-04-05T07:35:55.451Z,89.50
2023-04-05T07:37:28.378Z,89.10
2023-04-05T07:39:01.882Z,89.20
2023-04-05T07:40:34.662Z,89.10
2023-04-05T07:42:07.866Z,89.60
2023-04-05T07:43:40.768Z,89.80
2023-04-05T07:45:15.036Z,90.20
2023-04-05T07:46:49.334Z,90.00
2023-04-05T07:48:22.706Z,90.00
2023-04-05T07:49:55.693Z,90.10
2023-04-05T07:51:28.561Z,90.40
2023-04-05T07:53:01.492Z,90.20
2023-04-05T07:54:34.458Z,90.40
2023-04-05T07:56:08.517Z,90.00
2023-04-05T07:57:41.440Z,90.20
2023-04-05T07:59:15.137Z,90.10
2023-04-05T08:00:49.627Z,90.30
2023-04-05T08:02:22.567Z,90.30
2023-04-05T08:03:57.282Z,90.30
2023-04-05T08:05:30.392Z,90.30
2023-04-05T08:07:03.361Z,90.20
2023-04-05T08:08:39.747Z,89.80
2023-04-05T08:10:12.881Z,89.70
2023-04-05T08:11:46.165Z,88.80
2023-04-05T08:13:19.213Z,88.10
2023-04-05T08:14:52.298Z,88.00
2023-04-05T08:16:26.623Z,87.70
2023-04-05T08:17:59.711Z,87.30
2023-04-05T08:19:32.788Z,87.90
2023-04-05T08:21:06.000Z,87.80
2023-04-05T08:22:38.940Z,87.70
2023-04-05T08:24:12.000Z,87.30
2023-04-05T08:25:45.936Z,87.30
2023-04-05T08:27:18.890Z,87.30
2023-04-05T08:28:52.025Z,85.50
2023-04-05T08:30:24.940Z,84.20
2023-04-05T08:31:59.383Z,84.20
2023-04-05T08:33:32.378Z,83.70
2023-04-05T08:35:05.998Z,83.40
2023-04-05T08:36:38.918Z,83.10
2023-04-05T08:38:12.399Z,82.30
2023-04-05T08:39:45.150Z,81.90
2023-04-05T08:41:20.909Z,81.90
2023-04-05T08:42:58.834Z,81.50
2023-04-05T08:44:32.662Z,81.30
2023-04-05T08:46:09.804Z,81.00
2023-04-05T08:47:44.609Z,80.40
2023-04-05T08:49:17.778Z,80.10
2023-04-05T08:50:55.571Z,80.00
2023-04-05T08:52:28.888Z,79.60
2023-04-05T08:54:01.978Z,79.00
2023-04-05T08:55:35.439Z,78.80
2023-04-05T08:57:08.492Z,78.30
2023-04-05T08:58:42.254Z,77.80
2023-04-05T09:00:17.574Z,78.00
2023-04-05T09:01:52.695Z,77.60
2023-04-05T09:03:30.879Z,77.80
2023-04-05T09:05:04.990Z,77.30
2023-04-05T09:06:38.196Z,76.80
2023-04-05T09:08:11.607Z,76.30
2023-04-05T09:09:49.534Z,76.60
2023-04-05T09:11:22.649Z,76.50
2023-04-05T09:12:55.771Z,76.10
2023-04-05T09:14:31.162Z,75.60
2023-04-05T09:16:04.489Z,75.80
2023-04-05T09:17:38.922Z,75.20
2023-04-05T09:19:13.147Z,75.10
2023-04-05T09:20:46.496Z,74.40
2023-04-05T09:22:19.476Z,74.00
2023-04-05T09:23:54.192Z,73.80
2023-04-05T09:25:38.850Z,73.80
2023-04-05T09:27:13.092Z,73.50
2023-04-05T09:28:46.087Z,73.80
2023-04-05T09:30:23.513Z,74.30
2023-04-05T09:31:56.480Z,74.40
2023-04-05T09:33:31.427Z,74.40
2023-04-05T09:35:06.523Z,74.50
2023-04-05T09:36:45.679Z,73.80
2023-04-05T09:38:18.677Z,73.20
2023-04-05T09:40:02.546Z,73.10
2023-04-05T09:41:35.773Z,72.30
2023-04-05T09:43:08.837Z,72.20
2023-04-05T09:44:55.851Z,71.80
2023-04-05T09:46:32.533Z,71.60
2023-04-05T09:48:05.595Z,71.70
2023-04-05T09:49:38.569Z,71.00
2023-04-05T09:51:13.315Z,71.30
2023-04-05T09:52:46.646Z,71.40
2023-04-05T09:54:19.478Z,71.60
2023-04-05T09:55:52.413Z,71.10
2023-04-05T09:57:27.791Z,71.50
2023-04-05T09:59:02.338Z,72.10
2023-04-05T10:00:38.032Z,72.90
2023-04-05T10:02:12.727Z,72.00
2023-04-05T10:03:48.461Z,72.00
2023-04-05T10:05:25.422Z,72.20
2023-04-05T10:07:00.159Z,71.70
2023-04-05T10:08:33.158Z,71.20
2023-04-05T10:10:06.872Z,70.90
2023-04-05T10:11:40.387Z,70.50
2023-04-05T10:13:14.117Z,70.00
2023-04-05T10:14:47.014Z,69.80
2023-04-05T10:16:24.331Z,70.00
2023-04-05T10:18:04.746Z,69.50
2023-04-05T10:19:50.312Z,69.60
2023-04-05T10:21:28.491Z,69.40
2023-04-05T10:23:09.095Z,69.30
2023-04-05T10:24:49.448Z,68.90
2023-04-05T10:26:31.236Z,69.30
2023-04-05T10:28:06.702Z,68.90
2023-04-05T10:29:49.897Z,69.10
2023-04-05T10:31:36.934Z,69.50
2023-04-05T10:33:21.816Z,69.10
2023-04-05T10:35:00.490Z,70.40
2023-04-05T10:36:43.312Z,70.60
2023-04-05T10:38:25.610Z,70.70
2023-04-05T10:40:04.073Z,70.80
2023-04-05T10:41:43.035Z,71.10
2023-04-05T10:43:20.175Z,70.60
2023-04-05T10:44:55.694Z,70.90
2023-04-05T10:46:29.092Z,70.70
2023-04-05T10:48:07.199Z,71.10
2023-04-05T10:49:43.701Z,70.70
2023-04-05T10:51:17.112Z,71.20
2023-04-05T10:52:51.691Z,70.90
2023-04-05T10:54:26.137Z,71.00
2023-04-05T10:55:59.325Z,71.30
2023-04-05T10:57:33.658Z,70.60
2023-04-05T10:59:07.319Z,69.90
2023-04-05T11:00:41.786Z,69.90
2023-04-05T11:02:16.025Z,70.20
2023-04-05T11:03:50.399Z,69.70
2023-04-05T11:05:34.206Z,69.20
2023-04-05T11:07:13.729Z,69.00
2023-04-05T11:08:48.317Z,69.10
2023-04-05T11:10:23.788Z,69.60
2023-04-05T11:11:56.853Z,69.10
2023-04-05T11:13:51.647Z,69.80
2023-04-05T11:15:31.936Z,70.20
2023-04-05T11:17:05.368Z,69.90
2023-04-05T11:18:45.947Z,70.20
2023-04-05T11:20:18.979Z,70.30
2023-04-05T11:22:03.455Z,70.40
2023-04-05T11:24:09.500Z,70.50
2023-04-05T11:25:49.055Z,70.40
2023-04-05T11:27:27.983Z,70.60
2023-04-05T11:29:01.074Z,71.10
2023-04-05T11:30:51.516Z,71.60
2023-04-05T11:32:24.980Z,71.80
2023-04-05T11:34:00.603Z,71.60
2023-04-05T11:35:40.164Z,72.90
2023-04-05T11:37:16.168Z,72.40
2023-04-05T11:38:49.122Z,72.20
2023-04-05T11:40:30.423Z,73.00
2023-04-05T11:42:06.502Z,72.00
2023-04-05T11:43:39.673Z,71.40
2023-04-05T11:45:13.013Z,71.60
2023-04-05T11:46:47.283Z,71.60
2023-04-05T11:48:23.279Z,71.40
2023-04-05T11:49:59.349Z,71.00
2023-04-05T11:51:34.138Z,71.10
2023-04-05T11:53:11.487Z,70.90
2023-04-05T11:54:49.294Z,71.20
2023-04-05T11:56:22.496Z,71.40
2023-04-05T11:57:57.033Z,71.00
2023-04-05T11:59:34.971Z,70.20
2023-04-05T12:01:08.817Z,70.30
2023-04-05T12:02:45.268Z,70.30
2023-04-05T12:04:19.402Z,69.40
2023-04-05T12:05:53.800Z,69.60
2023-04-05T12:07:29.094Z,69.90
2023-04-05T12:09:02.330Z,69.30
2023-04-05T12:10:35.302Z,69.20
2023-04-05T12:12:17.708Z,68.70
2023-04-05T12:13:55.208Z,68.50
2023-04-05T12:15:28.349Z,68.90
2023-04-05T12:17:01.451Z,68.00
2023-04-05T12:18:36.280Z,67.60
2023-04-05T12:20:10.697Z,66.90
2023-04-05T12:21:44.052Z,67.10
2023-04-05T12:23:17.502Z,67.50
2023-04-05T12:24:50.813Z,67.20
2023-04-05T12:26:23.721Z,66.30
2023-04-05T12:27:56.697Z,66.60
2023-04-05T12:29:31.128Z,66.00
2023-04-05T12:31:04.087Z,65.60
2023-04-05T12:32:47.531Z,65.70
2023-04-05T12:34:26.976Z,65.20
2023-04-05T12:36:01.010Z,64.50
2023-04-05T12:37:34.918Z,64.10
2023-04-05T12:39:09.593Z,64.70
2023-04-05T12:40:42.840Z,64.60
2023-04-05T12:42:18.973Z,64.80
2023-04-05T12:43:58.324Z,64.90
2023-04-05T12:45:40.276Z,65.50
2023-04-05T12:47:15.277Z,64.70
2023-04-05T12:48:53.389Z,64.20
2023-04-05T12:50:30.926Z,65.00
2023-04-05T12:52:03.898Z,64.80
2023-04-05T12:53:45.325Z,64.90
2023-04-05T12:55:18.259Z,65.50
2023-04-05T12:56:52.820Z,66.10
2023-04-05T12:58:34.511Z,66.00
2023-04-05T13:00:10.859Z,66.30
2023-04-05T13:01:45.111Z,66.40
2023-04-05T13:03:20.868Z,66.70
2023-04-05T13:04:54.230Z,66.30
2023-04-05T13:06:27.276Z,66.50
2023-04-05T13:08:00.257Z,67.60
2023-04-05T13:09:35.202Z,66.80
2023-04-05T13:11:08.188Z,66.50
2023-04-05T13:12:41.154Z,65.80
2023-04-05T13:14:14.133Z,65.80
2023-04-05T13:15:47.791Z,66.40
2023-04-05T13:17:23.027Z,66.60
2023-04-05T13:18:55.920Z,65.70
2023-04-05T13:20:28.853Z,66.90
2023-04-05T13:22:01.988Z,66.50
2023-04-05T13:23:34.985Z,66.50
2023-04-05T13:25:08.276Z,65.40
2023-04-05T13:26:41.435Z,65.90
2023-04-05T13:28:14.647Z,65.30
2023-04-05T13:29:47.594Z,65.00
2023-04-05T13:31:20.674Z,65.30
2023-04-05T13:32:54.992Z,65.60
2023-04-05T13:34:27.942Z,65.60
2023-04-05T13:36:00.853Z,66.30
2023-04-05T13:37:33.899Z,65.80
2023-04-05T13:39:06.717Z,66.00
2023-04-05T13:40:39.810Z,65.70
2023-04-05T13:42:12.774Z,65.60
2023-04-05T13:43:45.882Z,65.80
2023-04-05T13:45:18.936Z,65.60
2023-04-05T13:46:51.879Z,65.60
2023-04-05T13:48:26.096Z,65.30
2023-04-05T13:49:59.022Z,65.50
2023-04-05T13:51:34.272Z,66.00
2023-04-05T13:53:07.153Z,65.30
2023-04-05T13:54:40.020Z,65.20
2023-04-05T13:56:12.943Z,64.90
2023-04-05T13:57:46.140Z,65.50
2023-04-05T13:59:19.651Z,64.70
2023-04-05T14:00:53.958Z,65.20
2023-04-05T14:02:27.267Z,64.70
2023-04-05T14:04:01.534Z,64.60
2023-04-05T14:05:34.474Z,65.00
2023-04-05T14:07:07.664Z,65.30
2023-04-05T14:08:40.563Z,65.30
2023-04-05T14:10:13.635Z,65.30
2023-04-05T14:11:46.727Z,65.80
2023-04-05T14:13:19.694Z,66.10
2023-04-05T14:14:52.749Z,66.30
2023-04-05T14:16:25.940Z,66.90
2023-04-05T14:17:58.999Z,66.30
2023-04-05T14:19:33.446Z,66.20
2023-04-05T14:21:06.436Z,66.50
2023-04-05T14:22:39.487Z,66.40
2023-04-05T14:24:12.576Z,66.70
2023-04-05T14:25:45.724Z,66.70
2023-04-05T14:27:22.185Z,66.90
2023-04-05T14:28:55.614Z,65.80
2023-04-05T14:30:28.426Z,65.30
2023-04-05T14:32:01.626Z,66.10
2023-04-05T14:33:33.633Z,66.00
2023-04-05T14:35:09.445Z,66.00
2023-04-05T14:36:42.766Z,65.80
2023-04-05T14:38:15.085Z,65.70
2023-04-05T14:39:48.211Z,65.50
2023-04-05T14:41:21.292Z,65.80
2023-04-05T14:42:54.594Z,65.40
2023-04-05T14:44:27.957Z,65.70
2023-04-05T14:46:00.957Z,65.80
2023-04-05T14:47:34.031Z,65.80
2023-04-05T14:49:07.040Z,65.70
2023-04-05T14:50:41.697Z,66.10
2023-04-05T14:52:14.882Z,65.70
2023-04-05T14:53:47.977Z,65.60
2023-04-05T14:55:21.152Z,65.50
2023-04-05T14:56:54.163Z,65.90
2023-04-05T14:58:28.811Z,66.00
2023-04-05T15:00:01.815Z,66.00
2023-04-05T15:01:35.428Z,65.90
2023-04-05T15:03:08.630Z,66.00
2023-04-05T15:04:41.947Z,65.30
2023-04-05T15:06:16.691Z,65.80
2023-04-05T15:07:49.762Z,65.90
2023-04-05T15:09:22.827Z,65.40
2023-04-05T15:10:56.313Z,65.90
2023-04-05T15:12:29.182Z,65.70
2023-04-05T15:14:02.290Z,65.00
2023-04-05T15:15:35.877Z,64.70
2023-04-05T15:17:08.979Z,65.40
2023-04-05T15:18:42.238Z,65.40
2023-04-05T15:20:15.426Z,64.80
2023-04-05T15:21:49.924Z,64.70
2023-04-05T15:23:23.067Z,64.80
2023-04-05T15:24:56.739Z,65.20
2023-04-05T15:26:29.803Z,65.60
2023-04-05T15:28:06.752Z,65.80
2023-04-05T15:29:40.574Z,65.60
2023-04-05T15:31:13.727Z,65.20
2023-04-05T15:32:46.768Z,65.50
2023-04-05T15:34:19.802Z,65.50
2023-04-05T15:35:52.875Z,65.20
2023-04-05T15:37:27.459Z,65.10
2023-04-05T15:39:00.425Z,64.40
2023-04-05T15:40:33.483Z,64.50
2023-04-05T15:42:06.619Z,64.80
2023-04-05T15:43:39.922Z,65.10
2023-04-05T15:45:12.999Z,65.50
2023-04-05T15:46:46.450Z,65.90
2023-04-05T15:48:19.768Z,66.00
2023-04-05T15:49:52.847Z,65.90
2023-04-05T15:51:26.060Z,66.00
2023-04-05T15:53:00.451Z,65.80
2023-04-05T15:54:33.520Z,65.40
2023-04-05T15:56:07.291Z,65.80
2023-04-05T15:57:40.380Z,65.50
2023-04-05T15:59:14.321Z,65.80
2023-04-05T16:00:47.423Z,65.80
2023-04-05T16:02:19.535Z,65.70
2023-04-05T16:03:52.683Z,65.40
2023-04-05T16:05:25.877Z,65.00
2023-04-05T16:06:58.872Z,65.30
2023-04-05T16:08:33.278Z,65.60
2023-04-05T16:10:07.999Z,65.70
2023-04-05T16:11:41.074Z,65.30
2023-04-05T16:13:14.129Z,65.40
2023-04-05T16:14:47.207Z,65.70
2023-04-05T16:16:30.062Z,65.70
2023-04-05T16:18:14.179Z,65.40
2023-04-05T16:19:47.348Z,64.90
2023-04-05T16:21:20.429Z,65.40
2023-04-05T16:22:53.503Z,65.60
2023-04-05T16:24:28.272Z,65.80
2023-04-05T16:26:01.354Z,65.50
2023-04-05T16:27:33.661Z,65.80
2023-04-05T16:29:06.791Z,65.70
2023-04-05T16:30:39.819Z,65.30
2023-04-05T16:32:13.119Z,65.30
2023-04-05T16:33:46.093Z,65.50
2023-04-05T16:35:19.370Z,65.60
2023-04-05T16:36:52.420Z,65.40
2023-04-05T16:38:25.544Z,65.20
2023-04-05T16:40:00.211Z,65.50
2023-04-05T16:41:34.695Z,65.20
2023-04-05T16:43:07.765Z,66.20
2023-04-05T16:44:40.785Z,65.90
2023-04-05T16:46:13.830Z,65.60
2023-04-05T16:47:47.021Z,65.90
2023-04-05T16:49:20.014Z,66.20
2023-04-05T16:50:53.579Z,66.40
2023-04-05T16:52:26.671Z,66.40
2023-04-05T16:53:59.895Z,66.40
2023-04-05T16:55:34.349Z,66.50
2023-04-05T16:57:07.450Z,66.70
2023-04-05T16:58:40.592Z,67.10
2023-04-05T17:00:14.803Z,67.50
2023-04-05T17:01:47.931Z,67.10
2023-04-05T17:03:21.493Z,67.90
2023-04-05T17:04:54.752Z,68.40
2023-04-05T17:06:29.029Z,67.70
2023-04-05T17:08:02.212Z,67.70
2023-04-05T17:09:35.300Z,68.20
2023-04-05T17:11:11.039Z,68.40
2023-04-05T17:12:45.553Z,68.30
2023-04-05T17:14:18.678Z,68.40
2023-04-05T17:15:51.732Z,68.40
2023-04-05T17:17:24.834Z,68.60
2023-04-05T17:18:57.873Z,69.10
2023-04-05T17:20:31.067Z,68.90
2023-04-05T17:22:04.069Z,68.90
2023-04-05T17:23:37.174Z,68.70
2023-04-05T17:25:10.592Z,69.20
2023-04-05T17:26:44.894Z,68.80
2023-04-05T17:28:17.714Z,68.80
2023-04-05T17:29:51.022Z,69.20
2023-04-05T17:31:24.140Z,69.60
2023-04-05T17:32:57.427Z,69.10
2023-04-05T17:34:30.518Z,69.40
2023-04-05T17:36:04.131Z,69.30
2023-04-05T17:37:37.270Z,69.60
2023-04-05T17:39:10.404Z,69.60
2023-04-05T17:40:43.375Z,69.40
2023-04-05T17:42:18.435Z,69.10
2023-04-05T17:43:51.475Z,68.90
2023-04-05T17:45:24.546Z,69.10
2023-04-05T17:47:08.577Z,69.30
2023-04-05T17:48:42.958Z,69.30
2023-04-05T17:50:16.178Z,69.30
2023-04-05T17:51:49.626Z,69.40
2023-04-05T17:53:22.447Z,69.60
2023-04-05T17:54:55.572Z,69.70
2023-04-05T17:56:28.639Z,69.80
2023-04-05T17:58:03.109Z,69.70
2023-04-05T17:59:36.660Z,69.90
2023-04-05T18:01:14.240Z,69.90
2023-04-05T18:02:47.709Z,70.30
2023-04-05T18:04:21.810Z,70.30
2023-04-05T18:05:56.330Z,70.70
2023-04-05T18:07:29.352Z,70.80
2023-04-05T18:09:03.438Z,71.10
2023-04-05T18:10:36.792Z,71.00
2023-04-05T18:12:09.117Z,71.20
2023-04-05T18:13:43.617Z,71.20
2023-04-05T18:15:16.957Z,71.10
2023-04-05T18:16:49.822Z,71.00
2023-04-05T18:18:23.397Z,71.30
2023-04-05T18:19:56.740Z,71.80
2023-04-05T18:21:29.736Z,71.70
2023-04-05T18:23:02.850Z,71.80
2023-04-05T18:24:36.018Z,72.00
2023-04-05T18:26:09.228Z,72.10
2023-04-05T18:27:42.608Z,71.70
2023-04-05T18:29:16.889Z,71.60
2023-04-05T18:30:51.173Z,71.30
2023-04-05T18:32:24.438Z,71.60
2023-04-05T18:33:57.591Z,71.60
2023-04-05T18:35:31.116Z,71.50
2023-04-05T18:37:04.295Z,71.40
2023-04-05T18:38:37.388Z,71.40
2023-04-05T18:40:11.095Z,71.40
2023-04-05T18:41:44.303Z,71.80
2023-04-05T18:43:17.880Z,72.20
2023-04-05T18:44:52.345Z,71.70
2023-04-05T18:46:25.472Z,71.60
2023-04-05T18:48:00.328Z,72.00
2023-04-05T18:49:33.986Z,72.00
2023-04-05T18:51:07.126Z,72.00
2023-04-05T18:52:40.345Z,72.00
2023-04-05T18:54:13.970Z,72.00
2023-04-05T18:55:46.103Z,72.50
2023-04-05T18:57:19.221Z,72.60
2023-04-05T18:58:52.503Z,73.10
2023-04-05T19:00:27.049Z,73.40
2023-04-05T19:02:00.279Z,73.50
2023-04-05T19:03:33.787Z,73.60
2023-04-05T19:05:07.268Z,73.80
2023-04-05T19:06:40.391Z,74.00
2023-04-05T19:08:14.259Z,74.20
2023-04-05T19:09:47.271Z,74.20
2023-04-05T19:11:21.624Z,74.20
2023-04-05T19:12:54.752Z,74.40
2023-04-05T19:14:27.925Z,74.50
2023-04-05T19:16:02.693Z,74.70
2023-04-05T19:17:36.016Z,75.50
2023-04-05T19:19:09.181Z,75.20
2023-04-05T19:20:42.561Z,75.30
2023-04-05T19:22:15.656Z,75.50
2023-04-05T19:23:48.724Z,75.70
2023-04-05T19:25:21.891Z,75.50
2023-04-05T19:26:55.012Z,75.80
2023-04-05T19:28:28.410Z,76.00
2023-04-05T19:30:01.496Z,75.80
2023-04-05T19:31:37.022Z,76.10
2023-04-05T19:33:10.380Z,76.10
2023-04-05T19:34:43.429Z,76.40
2023-04-05T19:36:16.676Z,76.60
2023-04-05T19:37:49.977Z,76.80
2023-04-05T19:39:25.452Z,76.90
2023-04-05T19:40:59.299Z,77.40
2023-04-05T19:42:33.342Z,77.80
2023-04-05T19:44:10.777Z,77.90
2023-04-05T19:45:44.050Z,78.10
2023-04-05T19:47:20.775Z,78.30
2023-04-05T19:48:54.056Z,78.60
2023-04-05T19:50:54.296Z,78.70
2023-04-05T19:52:41.314Z,79.30
2023-04-05T19:54:14.933Z,79.50
2023-04-05T19:55:48.370Z,79.60
2023-04-05T19:57:21.229Z,80.20
2023-04-05T19:58:59.291Z,79.60
2023-04-05T20:00:35.758Z,80.10
2023-04-05T20:02:36.085Z,80.30
2023-04-05T20:04:14.277Z,80.70
2023-04-05T20:06:03.895Z,80.90
2023-04-05T20:07:37.465Z,81.00
2023-04-05T20:09:11.487Z,80.70
2023-04-05T20:10:47.575Z,80.90
2023-04-05T20:12:22.465Z,82.20
2023-04-05T20:13:58.031Z,82.40
2023-04-05T20:15:37.490Z,82.30
2023-04-05T20:17:12.302Z,82.20
2023-04-05T20:18:48.021Z,82.50